sensor_id;sensor_type;location;lat;lon;timestamp;P1;durP1;ratioP1;P2;durP2;ratioP2
19830;SDS011;10076;52.008;4.708;2023-12-20T00:01:19;33.77;;;30.60;;
19830;SDS011;10076;52.008;4.708;2023-12-20T00:03:44;34.43;;;31.53;;
19830;SDS011;10076;52.008;4.708;2023-12-20T00:06:09;35.17;;;32.03;;
19830;SDS011;10076;52.008;4.708;2023-12-20T00:08:35;35.80;;;32.53;;
19830;SDS011;10076;52.008;4.708;2023-12-20T00:11:00;34.27;;;31.03;;
19830;SDS011;10076;52.008;4.708;2023-12-20T00:13:26;35.70;;;32.60;;
19830;SDS011;10076;52.008;4.708;2023-12-20T00:15:51;34.87;;;31.77;;
19830;SDS011;10076;52.008;4.708;2023-12-20T00:18:16;33.20;;;30.17;;
19830;SDS011;10076;52.008;4.708;2023-12-20T00:20:41;33.80;;;30.80;;
19830;SDS011;10076;52.008;4.708;2023-12-20T00:23:07;34.40;;;31.40;;
19830;SDS011;10076;52.008;4.708;2023-12-20T00:25:33;42.70;;;33.53;;
19830;SDS011;10076;52.008;4.708;2023-12-20T00:27:59;35.70;;;32.60;;
19830;SDS011;10076;52.008;4.708;2023-12-20T00:30:24;37.00;;;33.83;;
19830;SDS011;10076;52.008;4.708;2023-12-20T00:32:50;35.00;;;31.90;;
19830;SDS011;10076;52.008;4.708;2023-12-20T00:35:15;35.83;;;32.43;;
19830;SDS011;10076;52.008;4.708;2023-12-20T00:37:41;36.13;;;33.03;;
19830;SDS011;10076;52.008;4.708;2023-12-20T00:40:08;35.03;;;31.67;;
19830;SDS011;10076;52.008;4.708;2023-12-20T00:42:34;34.77;;;31.70;;
19830;SDS011;10076;52.008;4.708;2023-12-20T00:44:59;41.07;;;33.63;;
19830;SDS011;10076;52.008;4.708;2023-12-20T00:47:25;35.60;;;32.57;;
19830;SDS011;10076;52.008;4.708;2023-12-20T00:49:50;35.87;;;32.77;;
19830;SDS011;10076;52.008;4.708;2023-12-20T00:52:16;35.87;;;32.77;;
19830;SDS011;10076;52.008;4.708;2023-12-20T00:54:42;35.87;;;32.67;;
19830;SDS011;10076;52.008;4.708;2023-12-20T00:57:08;37.23;;;33.23;;
19830;SDS011;10076;52.008;4.708;2023-12-20T00:59:33;35.53;;;32.53;;
19830;SDS011;10076;52.008;4.708;2023-12-20T01:01:58;35.37;;;32.37;;
19830;SDS011;10076;52.008;4.708;2023-12-20T01:04:23;36.60;;;33.30;;
19830;SDS011;10076;52.008;4.708;2023-12-20T01:06:49;36.93;;;33.83;;
19830;SDS011;10076;52.008;4.708;2023-12-20T01:09:14;38.00;;;34.60;;
19830;SDS011;10076;52.008;4.708;2023-12-20T01:11:39;36.40;;;33.40;;
19830;SDS011;10076;52.008;4.708;2023-12-20T01:14:05;38.50;;;34.87;;
19830;SDS011;10076;52.008;4.708;2023-12-20T01:16:30;36.83;;;33.77;;
19830;SDS011;10076;52.008;4.708;2023-12-20T01:18:55;35.83;;;32.90;;
19830;SDS011;10076;52.008;4.708;2023-12-20T01:21:21;35.83;;;32.83;;
19830;SDS011;10076;52.008;4.708;2023-12-20T01:23:46;36.47;;;33.47;;
19830;SDS011;10076;52.008;4.708;2023-12-20T01:26:12;38.10;;;35.00;;
19830;SDS011;10076;52.008;4.708;2023-12-20T01:28:37;36.17;;;33.17;;
19830;SDS011;10076;52.008;4.708;2023-12-20T01:31:03;37.40;;;34.47;;
19830;SDS011;10076;52.008;4.708;2023-12-20T01:33:28;36.20;;;33.23;;
19830;SDS011;10076;52.008;4.708;2023-12-20T01:35:54;36.27;;;33.20;;
19830;SDS011;10076;52.008;4.708;2023-12-20T01:38:19;35.23;;;32.33;;
19830;SDS011;10076;52.008;4.708;2023-12-20T01:40:45;34.20;;;31.40;;
19830;SDS011;10076;52.008;4.708;2023-12-20T01:43:10;35.37;;;32.47;;
19830;SDS011;10076;52.008;4.708;2023-12-20T01:45:37;38.20;;;34.87;;
19830;SDS011;10076;52.008;4.708;2023-12-20T01:48:02;34.97;;;32.07;;
19830;SDS011;10076;52.008;4.708;2023-12-20T01:50:29;36.63;;;32.73;;
19830;SDS011;10076;52.008;4.708;2023-12-20T01:52:57;36.63;;;33.40;;
19830;SDS011;10076;52.008;4.708;2023-12-20T01:55:27;35.80;;;32.90;;
19830;SDS011;10076;52.008;4.708;2023-12-20T01:57:54;35.60;;;32.70;;
19830;SDS011;10076;52.008;4.708;2023-12-20T02:00:20;33.93;;;31.13;;
19830;SDS011;10076;52.008;4.708;2023-12-20T02:02:48;35.43;;;32.63;;
19830;SDS011;10076;52.008;4.708;2023-12-20T02:05:15;36.57;;;33.67;;
19830;SDS011;10076;52.008;4.708;2023-12-20T02:07:41;37.07;;;34.17;;
19830;SDS011;10076;52.008;4.708;2023-12-20T02:10:07;37.10;;;34.03;;
19830;SDS011;10076;52.008;4.708;2023-12-20T02:12:32;37.57;;;34.60;;
19830;SDS011;10076;52.008;4.708;2023-12-20T02:14:58;37.60;;;34.33;;
19830;SDS011;10076;52.008;4.708;2023-12-20T02:17:23;37.93;;;34.93;;
19830;SDS011;10076;52.008;4.708;2023-12-20T02:19:49;37.03;;;33.40;;
19830;SDS011;10076;52.008;4.708;2023-12-20T02:22:15;34.47;;;31.63;;
19830;SDS011;10076;52.008;4.708;2023-12-20T02:24:40;35.83;;;32.70;;
19830;SDS011;10076;52.008;4.708;2023-12-20T02:27:06;35.23;;;32.33;;
19830;SDS011;10076;52.008;4.708;2023-12-20T02:29:33;38.67;;;35.33;;
19830;SDS011;10076;52.008;4.708;2023-12-20T02:31:59;33.53;;;30.83;;
19830;SDS011;10076;52.008;4.708;2023-12-20T02:34:24;34.37;;;31.67;;
19830;SDS011;10076;52.008;4.708;2023-12-20T02:36:49;34.87;;;31.93;;
19830;SDS011;10076;52.008;4.708;2023-12-20T02:39:15;35.13;;;32.37;;
19830;SDS011;10076;52.008;4.708;2023-12-20T02:41:40;33.73;;;31.07;;
19830;SDS011;10076;52.008;4.708;2023-12-20T02:44:06;35.43;;;32.73;;
19830;SDS011;10076;52.008;4.708;2023-12-20T02:46:31;37.77;;;30.87;;
19830;SDS011;10076;52.008;4.708;2023-12-20T02:48:56;35.40;;;32.60;;
19830;SDS011;10076;52.008;4.708;2023-12-20T02:51:21;35.37;;;32.47;;
19830;SDS011;10076;52.008;4.708;2023-12-20T02:53:47;34.57;;;32.07;;
19830;SDS011;10076;52.008;4.708;2023-12-20T02:56:12;34.60;;;31.10;;
19830;SDS011;10076;52.008;4.708;2023-12-20T02:58:38;33.20;;;30.40;;
19830;SDS011;10076;52.008;4.708;2023-12-20T03:01:04;33.60;;;30.80;;
19830;SDS011;10076;52.008;4.708;2023-12-20T03:03:29;33.00;;;30.17;;
19830;SDS011;10076;52.008;4.708;2023-12-20T03:05:54;32.10;;;29.70;;
19830;SDS011;10076;52.008;4.708;2023-12-20T03:08:20;35.30;;;31.87;;
19830;SDS011;10076;52.008;4.708;2023-12-20T03:10:45;32.53;;;29.53;;
19830;SDS011;10076;52.008;4.708;2023-12-20T03:13:11;32.60;;;30.03;;
19830;SDS011;10076;52.008;4.708;2023-12-20T03:15:36;33.20;;;30.70;;
19830;SDS011;10076;52.008;4.708;2023-12-20T03:18:02;30.73;;;28.40;;
19830;SDS011;10076;52.008;4.708;2023-12-20T03:20:27;31.67;;;29.27;;
19830;SDS011;10076;52.008;4.708;2023-12-20T03:22:53;32.33;;;29.83;;
19830;SDS011;10076;52.008;4.708;2023-12-20T03:25:18;30.90;;;28.17;;
19830;SDS011;10076;52.008;4.708;2023-12-20T03:27:43;30.77;;;28.17;;
19830;SDS011;10076;52.008;4.708;2023-12-20T03:30:09;29.17;;;26.87;;
19830;SDS011;10076;52.008;4.708;2023-12-20T03:32:34;30.27;;;27.87;;
19830;SDS011;10076;52.008;4.708;2023-12-20T03:35:00;29.93;;;27.63;;
19830;SDS011;10076;52.008;4.708;2023-12-20T03:37:25;30.40;;;28.10;;
19830;SDS011;10076;52.008;4.708;2023-12-20T03:39:50;28.53;;;26.23;;
19830;SDS011;10076;52.008;4.708;2023-12-20T03:42:16;28.70;;;26.43;;
19830;SDS011;10076;52.008;4.708;2023-12-20T03:44:41;28.27;;;26.03;;
19830;SDS011;10076;52.008;4.708;2023-12-20T03:47:06;28.97;;;26.43;;
19830;SDS011;10076;52.008;4.708;2023-12-20T03:49:32;28.10;;;25.90;;
19830;SDS011;10076;52.008;4.708;2023-12-20T03:51:57;27.00;;;25.00;;
19830;SDS011;10076;52.008;4.708;2023-12-20T03:54:23;27.63;;;25.60;;
19830;SDS011;10076;52.008;4.708;2023-12-20T03:56:49;27.87;;;25.77;;
19830;SDS011;10076;52.008;4.708;2023-12-20T03:59:14;28.33;;;25.47;;
19830;SDS011;10076;52.008;4.708;2023-12-20T04:01:42;27.43;;;25.23;;
19830;SDS011;10076;52.008;4.708;2023-12-20T04:04:09;28.67;;;26.43;;
19830;SDS011;10076;52.008;4.708;2023-12-20T04:06:34;27.83;;;25.73;;
19830;SDS011;10076;52.008;4.708;2023-12-20T04:09:00;27.10;;;25.00;;
19830;SDS011;10076;52.008;4.708;2023-12-20T04:11:25;26.67;;;24.53;;
19830;SDS011;10076;52.008;4.708;2023-12-20T04:13:50;27.57;;;25.17;;
19830;SDS011;10076;52.008;4.708;2023-12-20T04:16:15;26.17;;;23.97;;
19830;SDS011;10076;52.008;4.708;2023-12-20T04:18:41;26.93;;;24.40;;
19830;SDS011;10076;52.008;4.708;2023-12-20T04:21:06;26.50;;;24.50;;
19830;SDS011;10076;52.008;4.708;2023-12-20T04:23:32;26.73;;;24.73;;
19830;SDS011;10076;52.008;4.708;2023-12-20T04:25:57;27.33;;;25.03;;
19830;SDS011;10076;52.008;4.708;2023-12-20T04:28:22;27.43;;;25.13;;
19830;SDS011;10076;52.008;4.708;2023-12-20T04:30:48;26.20;;;23.83;;
19830;SDS011;10076;52.008;4.708;2023-12-20T04:33:13;28.80;;;23.70;;
19830;SDS011;10076;52.008;4.708;2023-12-20T04:35:38;25.57;;;23.60;;
19830;SDS011;10076;52.008;4.708;2023-12-20T04:38:05;26.30;;;24.30;;
19830;SDS011;10076;52.008;4.708;2023-12-20T04:40:31;26.00;;;24.00;;
19830;SDS011;10076;52.008;4.708;2023-12-20T04:42:56;26.73;;;24.67;;
19830;SDS011;10076;52.008;4.708;2023-12-20T04:45:22;27.13;;;24.50;;
19830;SDS011;10076;52.008;4.708;2023-12-20T04:47:48;26.87;;;24.83;;
19830;SDS011;10076;52.008;4.708;2023-12-20T04:50:14;27.07;;;24.87;;
19830;SDS011;10076;52.008;4.708;2023-12-20T04:52:39;27.23;;;25.03;;
19830;SDS011;10076;52.008;4.708;2023-12-20T04:55:05;26.97;;;24.40;;
19830;SDS011;10076;52.008;4.708;2023-12-20T04:57:30;26.47;;;23.87;;
19830;SDS011;10076;52.008;4.708;2023-12-20T04:59:55;25.80;;;23.80;;
19830;SDS011;10076;52.008;4.708;2023-12-20T05:02:21;25.70;;;23.70;;
19830;SDS011;10076;52.008;4.708;2023-12-20T05:04:46;27.63;;;25.20;;
19830;SDS011;10076;52.008;4.708;2023-12-20T05:07:11;26.47;;;24.33;;
19830;SDS011;10076;52.008;4.708;2023-12-20T05:09:37;25.50;;;23.60;;
19830;SDS011;10076;52.008;4.708;2023-12-20T05:12:02;27.13;;;25.13;;
19830;SDS011;10076;52.008;4.708;2023-12-20T05:14:28;25.70;;;23.70;;
19830;SDS011;10076;52.008;4.708;2023-12-20T05:16:53;27.03;;;24.83;;
19830;SDS011;10076;52.008;4.708;2023-12-20T05:19:18;27.70;;;25.47;;
19830;SDS011;10076;52.008;4.708;2023-12-20T05:21:43;27.07;;;25.07;;
19830;SDS011;10076;52.008;4.708;2023-12-20T05:24:09;27.37;;;25.07;;
19830;SDS011;10076;52.008;4.708;2023-12-20T05:26:34;25.37;;;23.47;;
19830;SDS011;10076;52.008;4.708;2023-12-20T05:28:59;25.10;;;23.20;;
19830;SDS011;10076;52.008;4.708;2023-12-20T05:31:25;26.13;;;24.03;;
19830;SDS011;10076;52.008;4.708;2023-12-20T05:33:50;25.13;;;23.13;;
19830;SDS011;10076;52.008;4.708;2023-12-20T05:36:15;26.67;;;24.57;;
19830;SDS011;10076;52.008;4.708;2023-12-20T05:38:40;26.10;;;24.10;;
19830;SDS011;10076;52.008;4.708;2023-12-20T05:41:06;26.17;;;23.97;;
19830;SDS011;10076;52.008;4.708;2023-12-20T05:43:31;25.50;;;23.07;;
19830;SDS011;10076;52.008;4.708;2023-12-20T05:45:56;25.43;;;23.33;;
19830;SDS011;10076;52.008;4.708;2023-12-20T05:48:23;25.57;;;23.47;;
19830;SDS011;10076;52.008;4.708;2023-12-20T05:50:48;27.23;;;23.67;;
19830;SDS011;10076;52.008;4.708;2023-12-20T05:53:14;25.60;;;23.57;;
19830;SDS011;10076;52.008;4.708;2023-12-20T05:55:39;27.87;;;24.83;;
19830;SDS011;10076;52.008;4.708;2023-12-20T05:58:05;26.23;;;23.60;;
19830;SDS011;10076;52.008;4.708;2023-12-20T06:00:30;28.33;;;25.97;;
19830;SDS011;10076;52.008;4.708;2023-12-20T06:02:55;28.33;;;26.33;;
19830;SDS011;10076;52.008;4.708;2023-12-20T06:05:20;30.83;;;28.57;;
19830;SDS011;10076;52.008;4.708;2023-12-20T06:07:46;32.30;;;29.60;;
19830;SDS011;10076;52.008;4.708;2023-12-20T06:10:13;30.67;;;28.47;;
19830;SDS011;10076;52.008;4.708;2023-12-20T06:12:38;31.90;;;29.27;;
19830;SDS011;10076;52.008;4.708;2023-12-20T06:15:04;30.50;;;28.10;;
19830;SDS011;10076;52.008;4.708;2023-12-20T06:17:30;31.00;;;28.67;;
19830;SDS011;10076;52.008;4.708;2023-12-20T06:19:56;29.93;;;27.87;;
19830;SDS011;10076;52.008;4.708;2023-12-20T06:22:22;29.83;;;27.27;;
19830;SDS011;10076;52.008;4.708;2023-12-20T06:24:47;28.97;;;26.97;;
19830;SDS011;10076;52.008;4.708;2023-12-20T06:27:13;30.27;;;28.17;;
19830;SDS011;10076;52.008;4.708;2023-12-20T06:29:38;30.93;;;28.67;;
19830;SDS011;10076;52.008;4.708;2023-12-20T06:32:04;30.97;;;28.87;;
19830;SDS011;10076;52.008;4.708;2023-12-20T06:34:29;32.67;;;30.57;;
19830;SDS011;10076;52.008;4.708;2023-12-20T06:36:55;30.83;;;28.57;;
19830;SDS011;10076;52.008;4.708;2023-12-20T06:39:20;31.10;;;28.80;;
19830;SDS011;10076;52.008;4.708;2023-12-20T06:41:45;33.23;;;30.93;;
19830;SDS011;10076;52.008;4.708;2023-12-20T06:44:10;34.17;;;31.87;;
19830;SDS011;10076;52.008;4.708;2023-12-20T06:46:36;35.23;;;32.13;;
19830;SDS011;10076;52.008;4.708;2023-12-20T06:49:01;32.33;;;30.13;;
19830;SDS011;10076;52.008;4.708;2023-12-20T06:51:27;33.80;;;31.40;;
19830;SDS011;10076;52.008;4.708;2023-12-20T06:53:53;31.70;;;29.27;;
19830;SDS011;10076;52.008;4.708;2023-12-20T06:56:18;29.93;;;27.83;;
19830;SDS011;10076;52.008;4.708;2023-12-20T06:58:44;32.83;;;30.03;;
19830;SDS011;10076;52.008;4.708;2023-12-20T07:01:11;31.47;;;29.17;;
19830;SDS011;10076;52.008;4.708;2023-12-20T07:03:39;30.37;;;27.87;;
19830;SDS011;10076;52.008;4.708;2023-12-20T07:06:05;29.90;;;27.63;;
19830;SDS011;10076;52.008;4.708;2023-12-20T07:08:31;30.43;;;28.03;;
19830;SDS011;10076;52.008;4.708;2023-12-20T07:10:56;29.83;;;27.33;;
19830;SDS011;10076;52.008;4.708;2023-12-20T07:13:22;29.67;;;27.40;;
19830;SDS011;10076;52.008;4.708;2023-12-20T07:15:47;29.30;;;26.73;;
19830;SDS011;10076;52.008;4.708;2023-12-20T07:18:13;27.83;;;25.63;;
19830;SDS011;10076;52.008;4.708;2023-12-20T07:20:39;29.83;;;27.13;;
19830;SDS011;10076;52.008;4.708;2023-12-20T07:23:04;28.87;;;26.47;;
19830;SDS011;10076;52.008;4.708;2023-12-20T07:25:29;32.47;;;29.33;;
19830;SDS011;10076;52.008;4.708;2023-12-20T07:27:57;31.37;;;29.10;;
19830;SDS011;10076;52.008;4.708;2023-12-20T07:30:22;30.17;;;27.97;;
19830;SDS011;10076;52.008;4.708;2023-12-20T07:32:48;29.93;;;27.23;;
19830;SDS011;10076;52.008;4.708;2023-12-20T07:35:13;29.23;;;27.03;;
19830;SDS011;10076;52.008;4.708;2023-12-20T07:37:38;28.87;;;26.77;;
19830;SDS011;10076;52.008;4.708;2023-12-20T07:40:04;30.03;;;27.73;;
19830;SDS011;10076;52.008;4.708;2023-12-20T07:42:30;33.13;;;30.87;;
19830;SDS011;10076;52.008;4.708;2023-12-20T07:44:55;34.57;;;32.27;;
19830;SDS011;10076;52.008;4.708;2023-12-20T07:47:20;31.53;;;29.07;;
19830;SDS011;10076;52.008;4.708;2023-12-20T07:49:47;30.67;;;28.07;;
19830;SDS011;10076;52.008;4.708;2023-12-20T07:52:17;29.90;;;27.70;;
19830;SDS011;10076;52.008;4.708;2023-12-20T07:54:43;33.67;;;30.97;;
19830;SDS011;10076;52.008;4.708;2023-12-20T07:57:09;32.00;;;29.80;;
19830;SDS011;10076;52.008;4.708;2023-12-20T07:59:35;28.83;;;26.73;;
19830;SDS011;10076;52.008;4.708;2023-12-20T08:02:01;29.80;;;27.13;;
19830;SDS011;10076;52.008;4.708;2023-12-20T08:04:26;28.77;;;26.67;;
19830;SDS011;10076;52.008;4.708;2023-12-20T08:06:51;28.83;;;26.63;;
19830;SDS011;10076;52.008;4.708;2023-12-20T08:09:16;30.03;;;27.30;;
19830;SDS011;10076;52.008;4.708;2023-12-20T08:11:45;27.30;;;25.10;;
19830;SDS011;10076;52.008;4.708;2023-12-20T08:14:11;27.30;;;25.30;;
19830;SDS011;10076;52.008;4.708;2023-12-20T08:16:36;26.90;;;24.90;;
19830;SDS011;10076;52.008;4.708;2023-12-20T08:19:01;27.27;;;25.23;;
19830;SDS011;10076;52.008;4.708;2023-12-20T08:21:27;27.13;;;25.13;;
19830;SDS011;10076;52.008;4.708;2023-12-20T08:23:52;28.87;;;26.67;;
19830;SDS011;10076;52.008;4.708;2023-12-20T08:26:21;27.77;;;25.77;;
19830;SDS011;10076;52.008;4.708;2023-12-20T08:28:48;29.20;;;27.10;;
19830;SDS011;10076;52.008;4.708;2023-12-20T08:31:17;29.90;;;27.43;;
19830;SDS011;10076;52.008;4.708;2023-12-20T08:33:46;29.57;;;27.47;;
19830;SDS011;10076;52.008;4.708;2023-12-20T08:36:12;28.33;;;26.23;;
19830;SDS011;10076;52.008;4.708;2023-12-20T08:38:38;27.77;;;25.77;;
19830;SDS011;10076;52.008;4.708;2023-12-20T08:41:04;28.50;;;26.10;;
19830;SDS011;10076;52.008;4.708;2023-12-20T08:43:33;29.00;;;26.90;;
19830;SDS011;10076;52.008;4.708;2023-12-20T08:45:59;28.57;;;26.47;;
19830;SDS011;10076;52.008;4.708;2023-12-20T08:48:24;29.83;;;27.13;;
19830;SDS011;10076;52.008;4.708;2023-12-20T08:50:50;29.50;;;27.33;;
19830;SDS011;10076;52.008;4.708;2023-12-20T08:53:17;28.23;;;25.63;;
19830;SDS011;10076;52.008;4.708;2023-12-20T08:55:43;29.10;;;26.97;;
19830;SDS011;10076;52.008;4.708;2023-12-20T08:58:08;29.60;;;27.20;;
19830;SDS011;10076;52.008;4.708;2023-12-20T09:00:34;28.83;;;26.83;;
19830;SDS011;10076;52.008;4.708;2023-12-20T09:02:59;30.13;;;27.30;;
19830;SDS011;10076;52.008;4.708;2023-12-20T09:05:26;28.87;;;26.63;;
19830;SDS011;10076;52.008;4.708;2023-12-20T09:07:51;28.90;;;26.70;;
19830;SDS011;10076;52.008;4.708;2023-12-20T09:10:16;28.97;;;26.97;;
19830;SDS011;10076;52.008;4.708;2023-12-20T09:12:46;30.73;;;28.20;;
19830;SDS011;10076;52.008;4.708;2023-12-20T09:15:12;29.57;;;27.57;;
19830;SDS011;10076;52.008;4.708;2023-12-20T09:17:38;29.30;;;27.20;;
19830;SDS011;10076;52.008;4.708;2023-12-20T09:20:05;29.93;;;27.87;;
19830;SDS011;10076;52.008;4.708;2023-12-20T09:22:32;29.13;;;27.13;;
19830;SDS011;10076;52.008;4.708;2023-12-20T09:24:58;29.30;;;27.00;;
19830;SDS011;10076;52.008;4.708;2023-12-20T09:27:23;28.57;;;26.57;;
19830;SDS011;10076;52.008;4.708;2023-12-20T09:29:49;28.00;;;25.90;;
19830;SDS011;10076;52.008;4.708;2023-12-20T09:32:14;29.67;;;27.57;;
19830;SDS011;10076;52.008;4.708;2023-12-20T09:34:40;31.97;;;28.50;;
19830;SDS011;10076;52.008;4.708;2023-12-20T09:37:06;31.30;;;29.10;;
19830;SDS011;10076;52.008;4.708;2023-12-20T09:39:32;29.50;;;27.07;;
19830;SDS011;10076;52.008;4.708;2023-12-20T09:42:01;30.20;;;27.60;;
19830;SDS011;10076;52.008;4.708;2023-12-20T09:44:28;29.33;;;27.33;;
19830;SDS011;10076;52.008;4.708;2023-12-20T09:46:55;29.67;;;27.47;;
19830;SDS011;10076;52.008;4.708;2023-12-20T09:49:21;29.80;;;27.33;;
19830;SDS011;10076;52.008;4.708;2023-12-20T09:51:47;29.77;;;27.77;;
19830;SDS011;10076;52.008;4.708;2023-12-20T09:54:19;31.23;;;29.13;;
19830;SDS011;10076;52.008;4.708;2023-12-20T09:56:45;30.53;;;28.40;;
19830;SDS011;10076;52.008;4.708;2023-12-20T09:59:11;30.13;;;28.03;;
19830;SDS011;10076;52.008;4.708;2023-12-20T10:01:38;29.47;;;27.27;;
19830;SDS011;10076;52.008;4.708;2023-12-20T10:04:05;29.27;;;27.03;;
19830;SDS011;10076;52.008;4.708;2023-12-20T10:06:34;29.03;;;27.03;;
19830;SDS011;10076;52.008;4.708;2023-12-20T10:09:01;29.87;;;27.53;;
19830;SDS011;10076;52.008;4.708;2023-12-20T10:11:26;28.37;;;26.27;;
19830;SDS011;10076;52.008;4.708;2023-12-20T10:13:53;28.53;;;26.63;;
19830;SDS011;10076;52.008;4.708;2023-12-20T10:16:24;28.97;;;26.87;;
19830;SDS011;10076;52.008;4.708;2023-12-20T10:18:50;28.93;;;26.83;;
19830;SDS011;10076;52.008;4.708;2023-12-20T10:21:15;29.63;;;27.63;;
19830;SDS011;10076;52.008;4.708;2023-12-20T10:23:41;29.03;;;27.03;;
19830;SDS011;10076;52.008;4.708;2023-12-20T10:26:06;30.00;;;27.90;;
19830;SDS011;10076;52.008;4.708;2023-12-20T10:28:35;29.40;;;27.40;;
19830;SDS011;10076;52.008;4.708;2023-12-20T10:31:00;30.07;;;27.90;;
19830;SDS011;10076;52.008;4.708;2023-12-20T10:33:26;28.20;;;26.30;;
19830;SDS011;10076;52.008;4.708;2023-12-20T10:35:59;27.73;;;25.83;;
19830;SDS011;10076;52.008;4.708;2023-12-20T10:38:25;28.37;;;26.07;;
19830;SDS011;10076;52.008;4.708;2023-12-20T10:40:52;28.70;;;26.77;;
19830;SDS011;10076;52.008;4.708;2023-12-20T10:43:21;30.63;;;28.17;;
19830;SDS011;10076;52.008;4.708;2023-12-20T10:45:47;28.63;;;26.73;;
19830;SDS011;10076;52.008;4.708;2023-12-20T10:48:13;29.93;;;27.93;;
19830;SDS011;10076;52.008;4.708;2023-12-20T10:50:39;28.63;;;26.63;;
19830;SDS011;10076;52.008;4.708;2023-12-20T10:53:06;29.27;;;27.27;;
19830;SDS011;10076;52.008;4.708;2023-12-20T10:55:32;30.53;;;28.23;;
19830;SDS011;10076;52.008;4.708;2023-12-20T10:58:01;29.23;;;26.93;;
19830;SDS011;10076;52.008;4.708;2023-12-20T11:00:30;28.43;;;26.33;;
19830;SDS011;10076;52.008;4.708;2023-12-20T11:02:57;30.53;;;27.57;;
19830;SDS011;10076;52.008;4.708;2023-12-20T11:05:36;26.47;;;24.47;;
19830;SDS011;10076;52.008;4.708;2023-12-20T11:11:14;27.07;;;25.07;;
19830;SDS011;10076;52.008;4.708;2023-12-20T11:16:31;29.17;;;26.73;;
19830;SDS011;10076;52.008;4.708;2023-12-20T11:18:57;28.93;;;26.73;;
19830;SDS011;10076;52.008;4.708;2023-12-20T11:21:29;29.50;;;27.43;;
19830;SDS011;10076;52.008;4.708;2023-12-20T11:23:54;29.07;;;26.70;;
19830;SDS011;10076;52.008;4.708;2023-12-20T11:26:22;27.43;;;25.43;;
19830;SDS011;10076;52.008;4.708;2023-12-20T11:28:53;27.77;;;25.40;;
19830;SDS011;10076;52.008;4.708;2023-12-20T11:31:18;27.80;;;25.47;;
19830;SDS011;10076;52.008;4.708;2023-12-20T11:33:44;29.77;;;27.57;;
19830;SDS011;10076;52.008;4.708;2023-12-20T11:36:13;27.97;;;25.87;;
19830;SDS011;10076;52.008;4.708;2023-12-20T11:38:58;28.27;;;25.93;;
19830;SDS011;10076;52.008;4.708;2023-12-20T11:41:25;28.53;;;26.37;;
19830;SDS011;10076;52.008;4.708;2023-12-20T11:43:54;27.23;;;25.33;;
19830;SDS011;10076;52.008;4.708;2023-12-20T11:46:21;27.10;;;25.00;;
19830;SDS011;10076;52.008;4.708;2023-12-20T11:48:46;28.10;;;26.10;;
19830;SDS011;10076;52.008;4.708;2023-12-20T11:51:13;27.53;;;25.53;;
19830;SDS011;10076;52.008;4.708;2023-12-20T11:53:39;27.97;;;25.87;;
19830;SDS011;10076;52.008;4.708;2023-12-20T11:56:05;28.00;;;25.80;;
19830;SDS011;10076;52.008;4.708;2023-12-20T11:58:32;27.27;;;25.27;;
19830;SDS011;10076;52.008;4.708;2023-12-20T12:00:57;27.47;;;25.13;;
19830;SDS011;10076;52.008;4.708;2023-12-20T12:03:23;26.20;;;24.30;;
19830;SDS011;10076;52.008;4.708;2023-12-20T12:05:49;27.17;;;25.03;;
19830;SDS011;10076;52.008;4.708;2023-12-20T12:08:14;26.57;;;24.37;;
19830;SDS011;10076;52.008;4.708;2023-12-20T12:10:40;26.63;;;24.47;;
19830;SDS011;10076;52.008;4.708;2023-12-20T12:13:05;26.50;;;24.40;;
19830;SDS011;10076;52.008;4.708;2023-12-20T12:15:31;29.17;;;26.07;;
19830;SDS011;10076;52.008;4.708;2023-12-20T12:17:57;27.40;;;25.20;;
19830;SDS011;10076;52.008;4.708;2023-12-20T12:20:22;27.53;;;25.43;;
19830;SDS011;10076;52.008;4.708;2023-12-20T12:22:58;27.43;;;25.13;;
19830;SDS011;10076;52.008;4.708;2023-12-20T12:25:31;28.90;;;26.67;;
19830;SDS011;10076;52.008;4.708;2023-12-20T12:27:57;27.90;;;25.90;;
19830;SDS011;10076;52.008;4.708;2023-12-20T12:30:23;28.03;;;25.17;;
19830;SDS011;10076;52.008;4.708;2023-12-20T12:32:50;27.47;;;25.47;;
19830;SDS011;10076;52.008;4.708;2023-12-20T12:35:16;29.43;;;26.90;;
19830;SDS011;10076;52.008;4.708;2023-12-20T12:37:41;28.10;;;26.17;;
19830;SDS011;10076;52.008;4.708;2023-12-20T12:40:07;27.30;;;25.30;;
19830;SDS011;10076;52.008;4.708;2023-12-20T12:42:36;28.63;;;26.63;;
19830;SDS011;10076;52.008;4.708;2023-12-20T12:45:02;27.90;;;25.90;;
19830;SDS011;10076;52.008;4.708;2023-12-20T12:47:27;28.83;;;26.30;;
19830;SDS011;10076;52.008;4.708;2023-12-20T12:49:53;28.03;;;26.03;;
19830;SDS011;10076;52.008;4.708;2023-12-20T12:52:18;27.63;;;25.73;;
19830;SDS011;10076;52.008;4.708;2023-12-20T12:54:44;27.20;;;25.30;;
19830;SDS011;10076;52.008;4.708;2023-12-20T12:57:10;29.50;;;25.67;;
19830;SDS011;10076;52.008;4.708;2023-12-20T12:59:36;27.07;;;25.17;;
19830;SDS011;10076;52.008;4.708;2023-12-20T13:02:01;27.73;;;25.07;;
19830;SDS011;10076;52.008;4.708;2023-12-20T13:04:27;27.97;;;25.80;;
19830;SDS011;10076;52.008;4.708;2023-12-20T13:06:52;29.43;;;27.43;;
19830;SDS011;10076;52.008;4.708;2023-12-20T13:09:17;29.97;;;27.87;;
19830;SDS011;10076;52.008;4.708;2023-12-20T13:11:44;28.60;;;26.60;;
19830;SDS011;10076;52.008;4.708;2023-12-20T13:14:09;28.53;;;26.47;;
19830;SDS011;10076;52.008;4.708;2023-12-20T13:16:40;27.93;;;26.03;;
19830;SDS011;10076;52.008;4.708;2023-12-20T13:19:05;29.57;;;27.20;;
19830;SDS011;10076;52.008;4.708;2023-12-20T13:21:31;27.53;;;25.53;;
19830;SDS011;10076;52.008;4.708;2023-12-20T13:23:56;27.60;;;25.60;;
19830;SDS011;10076;52.008;4.708;2023-12-20T13:26:21;27.70;;;25.20;;
19830;SDS011;10076;52.008;4.708;2023-12-20T13:28:47;29.83;;;27.63;;
19830;SDS011;10076;52.008;4.708;2023-12-20T13:31:12;29.27;;;27.20;;
19830;SDS011;10076;52.008;4.708;2023-12-20T13:33:37;29.67;;;27.47;;
19830;SDS011;10076;52.008;4.708;2023-12-20T13:36:03;28.30;;;26.13;;
19830;SDS011;10076;52.008;4.708;2023-12-20T13:38:29;29.10;;;27.00;;
19830;SDS011;10076;52.008;4.708;2023-12-20T13:40:54;27.47;;;25.47;;
19830;SDS011;10076;52.008;4.708;2023-12-20T13:43:20;28.20;;;25.87;;
19830;SDS011;10076;52.008;4.708;2023-12-20T13:45:47;27.80;;;25.70;;
19830;SDS011;10076;52.008;4.708;2023-12-20T13:48:13;27.97;;;25.10;;
19830;SDS011;10076;52.008;4.708;2023-12-20T13:50:38;28.00;;;25.47;;
19830;SDS011;10076;52.008;4.708;2023-12-20T13:53:03;28.90;;;26.47;;
19830;SDS011;10076;52.008;4.708;2023-12-20T13:55:29;26.03;;;24.03;;
19830;SDS011;10076;52.008;4.708;2023-12-20T13:57:55;27.30;;;25.20;;
19830;SDS011;10076;52.008;4.708;2023-12-20T14:00:21;27.30;;;25.03;;
19830;SDS011;10076;52.008;4.708;2023-12-20T14:02:47;26.37;;;24.37;;
19830;SDS011;10076;52.008;4.708;2023-12-20T14:05:12;26.70;;;24.47;;
19830;SDS011;10076;52.008;4.708;2023-12-20T14:07:41;26.37;;;24.27;;
19830;SDS011;10076;52.008;4.708;2023-12-20T14:10:09;28.63;;;26.23;;
19830;SDS011;10076;52.008;4.708;2023-12-20T14:12:36;28.00;;;25.13;;
19830;SDS011;10076;52.008;4.708;2023-12-20T14:15:03;26.80;;;24.70;;
19830;SDS011;10076;52.008;4.708;2023-12-20T14:17:28;29.50;;;26.63;;
19830;SDS011;10076;52.008;4.708;2023-12-20T14:19:54;26.37;;;24.27;;